Time,TemperatureF,DewpointF,PressureIn,WindDirection,WindDirectionDegrees,WindSpeedMPH,WindSpeedGustMPH,Humidity,HourlyPrecipIn,Conditions,Clouds,dailyrainin,SoftwareType,DateUTC
2013-01-10 00:02:00,31.0,30.0,-100.00,East,90,9.0,10.0,95,-99.99,,,-99.99,,2013-01-10 06:02:00,
2013-01-10 00:32:00,31.0,30.0,-100.00,East,90,9.0,10.0,95,-99.99,,,-99.99,,2013-01-10 06:32:00,
2013-01-10 00:42:00,31.0,30.0,-100.00,East,90,9.0,10.0,95,-99.99,,,-99.99,,2013-01-10 06:42:00,
2013-01-10 00:52:00,31.0,30.0,-100.00,East,90,9.0,10.0,95,-99.99,,,-99.99,,2013-01-10 06:52:00,
2013-01-10 01:02:00,30.0,29.0,-100.00,South,190,1.0,2.0,95,-99.99,,,-99.99,,2013-01-10 07:02:00,
2013-01-10 01:32:00,30.0,29.0,-100.00,South,190,1.0,2.0,95,-99.99,,,-99.99,,2013-01-10 07:32:00,
2013-01-10 01:42:00,30.0,29.0,-100.00,South,190,1.0,2.0,95,-99.99,,,-99.99,,2013-01-10 07:42:00,
2013-01-10 01:52:00,30.0,29.0,-100.00,South,190,1.0,2.0,95,-99.99,,,-99.99,,2013-01-10 07:52:00,
2013-01-10 02:02:00,32.0,30.0,-100.00,East,95,6.0,7.0,94,-99.99,,,-99.99,,2013-01-10 08:02:00,
2013-01-10 02:33:00,32.0,30.0,-100.00,East,95,6.0,7.0,94,-99.99,,,-99.99,,2013-01-10 08:33:00,
2013-01-10 02:42:00,32.0,30.0,-100.00,East,95,6.0,7.0,94,-99.99,,,-99.99,,2013-01-10 08:42:00,
2013-01-10 02:53:00,32.0,30.0,-100.00,East,95,6.0,7.0,94,-99.99,,,-99.99,,2013-01-10 08:53:00,
2013-01-10 03:02:00,31.0,30.0,-100.00,NNW,330,3.0,6.0,95,-99.99,,,-99.99,,2013-01-10 09:02:00,
2013-01-10 03:32:00,31.0,30.0,-100.00,NNW,330,3.0,6.0,95,-99.99,,,-99.99,,2013-01-10 09:32:00,
2013-01-10 03:43:00,31.0,30.0,-100.00,NNW,330,3.0,6.0,95,-99.99,,,-99.99,,2013-01-10 09:43:00,
2013-01-10 03:52:00,31.0,30.0,-100.00,NNW,330,3.0,6.0,95,-99.99,,,-99.99,,2013-01-10 09:52:00,
2013-01-10 04:02:00,34.0,31.0,-100.00,East,90,6.0,6.0,87,-99.99,,,-99.99,,2013-01-10 10:02:00,
2013-01-10 04:33:00,34.0,31.0,-100.00,East,90,6.0,6.0,87,-99.99,,,-99.99,,2013-01-10 10:33:00,
2013-01-10 04:42:00,34.0,31.0,-100.00,East,90,6.0,6.0,87,-99.99,,,-99.99,,2013-01-10 10:42:00,
2013-01-10 04:52:00,34.0,31.0,-100.00,East,90,6.0,6.0,87,-99.99,,,-99.99,,2013-01-10 10:52:00,
2013-01-10 05:02:00,32.0,-4.0,-100.00,SE,145,2.0,3.0,21,-99.99,,,-99.99,,2013-01-10 11:02:00,
2013-01-10 05:33:00,32.0,-4.0,-100.00,SE,145,2.0,3.0,21,-99.99,,,-99.99,,2013-01-10 11:33:00,
2013-01-10 05:43:00,32.0,-4.0,-100.00,SE,145,2.0,3.0,21,-99.99,,,-99.99,,2013-01-10 11:43:00,
2013-01-10 05:53:00,32.0,-4.0,-100.00,SE,145,2.0,3.0,21,-99.99,,,-99.99,,2013-01-10 11:53:00,
2013-01-10 07:02:00,37.0,31.0,-100.00,SSW,205,3.0,5.0,80,-99.99,,,-99.99,,2013-01-10 13:02:00,
2013-01-10 07:33:00,37.0,31.0,-100.00,SSW,205,3.0,5.0,80,-99.99,,,-99.99,,2013-01-10 13:33:00,
2013-01-10 07:42:00,37.0,31.0,-100.00,SSW,205,3.0,5.0,80,-99.99,,,-99.99,,2013-01-10 13:42:00,
2013-01-10 07:53:00,37.0,31.0,-100.00,SSW,205,3.0,5.0,80,-99.99,,,-99.99,,2013-01-10 13:53:00,
2013-01-10 08:02:00,38.0,31.0,-100.00,SSE,155,7.0,9.0,76,-99.99,,,-99.99,,2013-01-10 14:02:00,
2013-01-10 08:33:00,38.0,31.0,-100.00,SSE,155,7.0,9.0,76,-99.99,,,-99.99,,2013-01-10 14:33:00,
2013-01-10 08:43:00,38.0,31.0,-100.00,SSE,155,7.0,9.0,76,-99.99,,,-99.99,,2013-01-10 14:43:00,
2013-01-10 08:53:00,38.0,31.0,-100.00,SSE,155,7.0,9.0,76,-99.99,,,-99.99,,2013-01-10 14:53:00,
2013-01-10 09:02:00,38.0,9.0,-100.00,South,180,6.0,10.0,30,-99.99,,,-99.99,,2013-01-10 15:02:00,
2013-01-10 09:33:00,38.0,9.0,-100.00,South,180,6.0,10.0,30,-99.99,,,-99.99,,2013-01-10 15:33:00,
2013-01-10 09:43:00,38.0,9.0,-100.00,South,180,6.0,10.0,30,-99.99,,,-99.99,,2013-01-10 15:43:00,
2013-01-10 09:53:00,38.0,9.0,-100.00,South,180,6.0,10.0,30,-99.99,,,-99.99,,2013-01-10 15:53:00,
2013-01-10 10:02:00,37.0,30.0,-100.00,East,90,4.0,5.0,76,-99.99,,,-99.99,,2013-01-10 16:02:00,
2013-01-10 10:33:00,37.0,30.0,-100.00,East,90,4.0,5.0,76,-99.99,,,-99.99,,2013-01-10 16:33:00,
2013-01-10 10:43:00,37.0,30.0,-100.00,East,90,4.0,5.0,76,-99.99,,,-99.99,,2013-01-10 16:43:00,
2013-01-10 10:53:00,37.0,30.0,-100.00,East,90,4.0,5.0,76,-99.99,,,-99.99,,2013-01-10 16:53:00,
2013-01-10 11:02:00,40.0,30.0,-100.00,SW,220,9.0,13.0,68,-99.99,,,-99.99,,2013-01-10 17:02:00,
2013-01-10 11:33:00,40.0,30.0,-100.00,SW,220,9.0,13.0,68,-99.99,,,-99.99,,2013-01-10 17:33:00,
2013-01-10 11:43:00,40.0,30.0,-100.00,SW,220,9.0,13.0,68,-99.99,,,-99.99,,2013-01-10 17:43:00,
2013-01-10 11:53:00,40.0,30.0,-100.00,SW,220,9.0,13.0,68,-99.99,,,-99.99,,2013-01-10 17:53:00,
2013-01-10 12:02:00,42.0,29.0,-100.00,South,180,8.0,14.0,60,-99.99,,,-99.99,,2013-01-10 18:02:00,
2013-01-10 12:33:00,42.0,29.0,-100.00,South,180,8.0,14.0,60,-99.99,,,-99.99,,2013-01-10 18:33:00,
2013-01-10 12:43:00,42.0,29.0,-100.00,South,180,8.0,14.0,60,-99.99,,,-99.99,,2013-01-10 18:43:00,
2013-01-10 12:53:00,42.0,29.0,-100.00,South,180,8.0,14.0,60,-99.99,,,-99.99,,2013-01-10 18:53:00,
2013-01-10 13:02:00,43.0,28.0,-100.00,SW,230,6.0,9.0,56,-99.99,,,-99.99,,2013-01-10 19:02:00,
2013-01-10 13:33:00,43.0,28.0,-100.00,SW,230,6.0,9.0,56,-99.99,,,-99.99,,2013-01-10 19:33:00,
2013-01-10 13:43:00,43.0,28.0,-100.00,SW,230,6.0,9.0,56,-99.99,,,-99.99,,2013-01-10 19:43:00,
2013-01-10 13:53:00,43.0,28.0,-100.00,SW,230,6.0,9.0,56,-99.99,,,-99.99,,2013-01-10 19:53:00,
2013-01-10 14:02:00,42.0,29.0,-100.00,ESE,110,5.0,9.0,62,-99.99,,,-99.99,,2013-01-10 20:02:00,
2013-01-10 14:33:00,42.0,29.0,-100.00,ESE,110,5.0,9.0,62,-99.99,,,-99.99,,2013-01-10 20:33:00,
2013-01-10 14:43:00,42.0,29.0,-100.00,ESE,110,5.0,9.0,62,-99.99,,,-99.99,,2013-01-10 20:43:00,
2013-01-10 14:53:00,42.0,29.0,-100.00,ESE,110,5.0,9.0,62,-99.99,,,-99.99,,2013-01-10 20:53:00,
2013-01-10 15:02:00,41.0,30.0,-100.00,East,100,6.0,7.0,64,-99.99,,,-99.99,,2013-01-10 21:02:00,
2013-01-10 15:33:00,41.0,30.0,-100.00,East,100,6.0,7.0,64,-99.99,,,-99.99,,2013-01-10 21:33:00,
2013-01-10 15:43:00,41.0,30.0,-100.00,East,100,6.0,7.0,64,-99.99,,,-99.99,,2013-01-10 21:43:00,
2013-01-10 15:53:00,41.0,30.0,-100.00,East,100,6.0,7.0,64,-99.99,,,-99.99,,2013-01-10 21:53:00,
2013-01-10 16:02:00,41.0,32.0,-100.00,East,95,3.0,5.0,71,-99.99,,,-99.99,,2013-01-10 22:02:00,
2013-01-10 16:34:00,41.0,32.0,-100.00,East,95,3.0,5.0,71,-99.99,,,-99.99,,2013-01-10 22:34:00,
2013-01-10 16:44:00,41.0,32.0,-100.00,East,95,3.0,5.0,71,-99.99,,,-99.99,,2013-01-10 22:44:00,
2013-01-10 17:02:00,40.0,34.0,-100.00,ESE,105,7.0,9.0,80,-99.99,,,-99.99,,2013-01-10 23:02:00,
2013-01-10 17:33:00,40.0,34.0,-100.00,ESE,105,7.0,9.0,80,-99.99,,,-99.99,,2013-01-10 23:33:00,
2013-01-10 17:43:00,40.0,34.0,-100.00,ESE,105,7.0,9.0,80,-99.99,,,-99.99,,2013-01-10 23:43:00,
2013-01-10 17:53:00,40.0,34.0,-100.00,ESE,105,7.0,9.0,80,-99.99,,,-99.99,,2013-01-10 23:53:00,
2013-01-10 18:02:00,39.0,34.0,-100.00,East,95,4.0,5.0,82,-99.99,,,-99.99,,2013-01-11 00:02:00,
2013-01-10 18:33:00,39.0,34.0,-100.00,East,95,4.0,5.0,82,-99.99,,,-99.99,,2013-01-11 00:33:00,
2013-01-10 18:43:00,39.0,34.0,-100.00,East,95,4.0,5.0,82,-99.99,,,-99.99,,2013-01-11 00:43:00,
2013-01-10 18:53:00,39.0,34.0,-100.00,East,95,4.0,5.0,82,-99.99,,,-99.99,,2013-01-11 00:53:00,
2013-01-10 19:02:00,39.0,33.0,-100.00,East,100,6.0,8.0,81,-99.99,,,-99.99,,2013-01-11 01:02:00,
2013-01-10 19:34:00,39.0,33.0,-100.00,East,100,6.0,8.0,81,-99.99,,,-99.99,,2013-01-11 01:34:00,
2013-01-10 19:43:00,39.0,33.0,-100.00,East,100,6.0,8.0,81,-99.99,,,-99.99,,2013-01-11 01:43:00,
2013-01-10 19:53:00,39.0,33.0,-100.00,East,100,6.0,8.0,81,-99.99,,,-99.99,,2013-01-11 01:53:00,
2013-01-10 20:02:00,38.0,34.0,-100.00,East,100,7.0,8.0,84,-99.99,,,-99.99,,2013-01-11 02:02:00,
2013-01-10 20:33:00,38.0,34.0,-100.00,East,100,7.0,8.0,84,-99.99,,,-99.99,,2013-01-11 02:33:00,
2013-01-10 20:43:00,38.0,34.0,-100.00,East,100,7.0,8.0,84,-99.99,,,-99.99,,2013-01-11 02:43:00,
2013-01-10 20:54:00,38.0,34.0,-100.00,East,100,7.0,8.0,84,-99.99,,,-99.99,,2013-01-11 02:54:00,
2013-01-10 21:02:00,38.0,34.0,-100.00,SE,125,4.0,6.0,87,-99.99,,,-99.99,,2013-01-11 03:02:00,
2013-01-10 21:33:00,38.0,34.0,-100.00,SE,125,4.0,6.0,87,-99.99,,,-99.99,,2013-01-11 03:33:00,
2013-01-10 21:43:00,38.0,34.0,-100.00,SE,125,4.0,6.0,87,-99.99,,,-99.99,,2013-01-11 03:43:00,
2013-01-10 21:53:00,38.0,34.0,-100.00,SE,125,4.0,6.0,87,-99.99,,,-99.99,,2013-01-11 03:53:00,
2013-01-10 22:02:00,36.0,34.0,-100.00,East,95,3.0,4.0,93,-99.99,,,-99.99,,2013-01-11 04:02:00,
2013-01-10 22:33:00,36.0,34.0,-100.00,East,95,3.0,4.0,93,-99.99,,,-99.99,,2013-01-11 04:33:00,
2013-01-10 22:43:00,36.0,34.0,-100.00,East,95,3.0,4.0,93,-99.99,,,-99.99,,2013-01-11 04:43:00,
2013-01-10 22:53:00,36.0,34.0,-100.00,East,95,3.0,4.0,93,-99.99,,,-99.99,,2013-01-11 04:53:00,
2013-01-10 23:02:00,32.0,31.0,-100.00,NW,305,1.0,1.0,97,-99.99,,,-99.99,,2013-01-11 05:02:00,
2013-01-10 23:33:00,32.0,31.0,-100.00,NW,305,1.0,1.0,97,-99.99,,,-99.99,,2013-01-11 05:33:00,
2013-01-10 23:43:00,32.0,31.0,-100.00,NW,305,1.0,1.0,97,-99.99,,,-99.99,,2013-01-11 05:43:00,
2013-01-10 23:53:00,32.0,31.0,-100.00,NW,305,1.0,1.0,97,-99.99,,,-99.99,,2013-01-11 05:53:00,